RYR74LL LKPR-EVRA
Flight info
| Callsign | RYR74LL |
|---|---|
| Flight time | 1h 23m |
| Altitude | 35000 |
| Route | ARTUP DCT LAGAR N871 SUWGI M857 BOKSU DCT GUNTA |
| Aircraft | B738/M-SDE2E3FGHIRWXY/LB1 |
Departure
| Time | 2026-05-06 18:47 |
|---|---|
| Airport | Václav Havel Airport Prague (LKPR) |
Arrival
| Time | 2026-05-06 20:10 |
|---|---|
| Airport | Riga International Airport (EVRA) |
| Time | Latitude | Longitude | Altitude | Speed | Heading |
|---|---|---|---|---|---|
| 2026-05-06 18:02 | 50.10882 | 14.25951 | 1165 ft | 0 kts | 304° |
| 2026-05-06 18:31 | 50.10894 | 14.25922 | 1165 ft | 7 kts | 304° |
| 2026-05-06 18:31 | 50.10908 | 14.25883 | 1164 ft | 8 kts | 285° |
| 2026-05-06 18:32 | 50.10868 | 14.25812 | 1165 ft | 10 kts | 213° |
| 2026-05-06 18:32 | 50.10814 | 14.25755 | 1165 ft | 9 kts | 214° |
| 2026-05-06 18:32 | 50.10762 | 14.25698 | 1166 ft | 9 kts | 214° |
| 2026-05-06 18:32 | 50.10710 | 14.25644 | 1169 ft | 9 kts | 214° |
| 2026-05-06 18:33 | 50.10660 | 14.25591 | 1169 ft | 9 kts | 214° |
| 2026-05-06 18:33 | 50.10613 | 14.25525 | 1171 ft | 12 kts | 233° |
| 2026-05-06 18:33 | 50.10586 | 14.25384 | 1168 ft | 8 kts | 260° |
| 2026-05-06 18:33 | 50.10576 | 14.25300 | 1168 ft | 0 kts | 259° |
| 2026-05-06 18:45 | 50.10573 | 14.25273 | 1164 ft | 8 kts | 259° |
| 2026-05-06 18:45 | 50.10552 | 14.25159 | 1164 ft | 6 kts | 237° |
| 2026-05-06 18:45 | 50.10521 | 14.25132 | 1165 ft | 5 kts | 179° |
| 2026-05-06 18:45 | 50.10504 | 14.25151 | 1165 ft | 5 kts | 131° |
| 2026-05-06 18:46 | 50.10470 | 14.25221 | 1167 ft | 12 kts | 127° |
| 2026-05-06 18:46 | 50.10304 | 14.25564 | 1182 ft | 73 kts | 127° |
| 2026-05-06 18:46 | 50.09864 | 14.26472 | 1202 ft | 135 kts | 127° |
| 2026-05-06 18:46 | 50.09201 | 14.27839 | 1373 ft | 172 kts | 126° |
| 2026-05-06 18:47 | 50.08479 | 14.29327 | 2189 ft | 174 kts | 126° |
| 2026-05-06 18:47 | 50.07717 | 14.30905 | 2718 ft | 196 kts | 125° |
| 2026-05-06 18:47 | 50.06850 | 14.32719 | 3020 ft | 219 kts | 126° |
| 2026-05-06 18:47 | 50.05888 | 14.34702 | 3354 ft | 237 kts | 127° |
| 2026-05-06 18:48 | 50.04867 | 14.36798 | 3866 ft | 251 kts | 128° |
| 2026-05-06 18:48 | 50.03776 | 14.39038 | 4408 ft | 265 kts | 128° |
| 2026-05-06 18:48 | 50.02650 | 14.41350 | 5226 ft | 270 kts | 129° |
| 2026-05-06 18:48 | 50.01518 | 14.43680 | 6100 ft | 271 kts | 130° |
| 2026-05-06 18:49 | 50.00376 | 14.46028 | 6916 ft | 274 kts | 130° |
| 2026-05-06 18:49 | 49.99213 | 14.48413 | 7658 ft | 280 kts | 131° |
| 2026-05-06 18:49 | 49.98034 | 14.50844 | 8425 ft | 285 kts | 128° |
| 2026-05-06 18:49 | 49.97259 | 14.53729 | 9148 ft | 299 kts | 100° |
| 2026-05-06 18:50 | 49.97480 | 14.56975 | 9872 ft | 311 kts | 69° |
| 2026-05-06 18:50 | 49.98715 | 14.59811 | 10224 ft | 331 kts | 41° |
| 2026-05-06 18:50 | 50.00596 | 14.62070 | 10438 ft | 353 kts | 34° |
| 2026-05-06 18:50 | 50.02663 | 14.64322 | 10750 ft | 370 kts | 34° |
| 2026-05-06 18:51 | 50.04789 | 14.66640 | 11359 ft | 375 kts | 34° |
| 2026-05-06 18:51 | 50.06917 | 14.69011 | 11625 ft | 374 kts | 35° |
| 2026-05-06 18:51 | 50.09022 | 14.71409 | 11754 ft | 377 kts | 36° |
| 2026-05-06 18:51 | 50.11152 | 14.73868 | 12189 ft | 384 kts | 36° |
| 2026-05-06 18:52 | 50.13294 | 14.76355 | 13049 ft | 383 kts | 36° |
| 2026-05-06 18:52 | 50.15429 | 14.78839 | 13816 ft | 385 kts | 36° |
| 2026-05-06 18:52 | 50.17674 | 14.81152 | 14383 ft | 389 kts | 24° |
| 2026-05-06 18:52 | 50.20150 | 14.82911 | 14996 ft | 393 kts | 26° |
| 2026-05-06 18:53 | 50.22553 | 14.85007 | 15581 ft | 398 kts | 30° |
| 2026-05-06 18:53 | 50.24166 | 14.86517 | 15965 ft | 402 kts | 30° |
| 2026-05-06 18:53 | 50.26579 | 14.88804 | 16518 ft | 408 kts | 30° |
| 2026-05-06 18:53 | 50.28988 | 14.91066 | 17112 ft | 412 kts | 30° |
| 2026-05-06 18:54 | 50.31472 | 14.93357 | 17716 ft | 416 kts | 30° |
| 2026-05-06 18:54 | 50.33990 | 14.95646 | 18261 ft | 421 kts | 29° |
| 2026-05-06 18:54 | 50.36539 | 14.97939 | 18763 ft | 425 kts | 29° |
| 2026-05-06 18:54 | 50.39109 | 15.00241 | 19320 ft | 427 kts | 29° |
| 2026-05-06 18:55 | 50.41738 | 15.02591 | 19844 ft | 430 kts | 29° |
| 2026-05-06 18:55 | 50.44314 | 15.04895 | 20325 ft | 434 kts | 29° |
| 2026-05-06 18:55 | 50.46985 | 15.07288 | 20812 ft | 438 kts | 29° |
| 2026-05-06 18:55 | 50.49608 | 15.09641 | 21291 ft | 442 kts | 29° |
| 2026-05-06 18:56 | 50.52291 | 15.12052 | 21770 ft | 446 kts | 29° |
| 2026-05-06 18:56 | 50.54991 | 15.14482 | 22240 ft | 449 kts | 29° |
| 2026-05-06 18:56 | 50.57720 | 15.16943 | 22705 ft | 453 kts | 29° |
| 2026-05-06 18:56 | 50.60459 | 15.19415 | 23179 ft | 456 kts | 29° |
| 2026-05-06 18:57 | 50.63224 | 15.21915 | 23608 ft | 459 kts | 30° |
| 2026-05-06 18:57 | 50.65999 | 15.24427 | 23993 ft | 461 kts | 30° |
| 2026-05-06 18:57 | 50.68788 | 15.26956 | 24384 ft | 464 kts | 29° |
| 2026-05-06 18:57 | 50.71591 | 15.29500 | 24782 ft | 466 kts | 29° |
| 2026-05-06 18:58 | 50.74412 | 15.32062 | 25170 ft | 468 kts | 29° |
| 2026-05-06 18:58 | 50.77135 | 15.34893 | 25522 ft | 471 kts | 40° |
| 2026-05-06 18:58 | 50.79427 | 15.38580 | 25891 ft | 472 kts | 53° |
| 2026-05-06 18:58 | 50.81210 | 15.42910 | 26328 ft | 469 kts | 66° |
| 2026-05-06 18:59 | 50.82489 | 15.47635 | 26721 ft | 468 kts | 71° |
| 2026-05-06 18:59 | 50.83678 | 15.52451 | 27025 ft | 471 kts | 72° |
| 2026-05-06 18:59 | 50.84862 | 15.57303 | 27299 ft | 475 kts | 71° |
| 2026-05-06 18:59 | 50.86066 | 15.62186 | 27599 ft | 478 kts | 71° |
| 2026-05-06 19:00 | 50.87291 | 15.67079 | 27928 ft | 479 kts | 71° |
| 2026-05-06 19:00 | 50.88532 | 15.71989 | 28230 ft | 481 kts | 71° |
| 2026-05-06 19:00 | 50.89785 | 15.76922 | 28483 ft | 485 kts | 71° |
| 2026-05-06 19:00 | 50.91049 | 15.81895 | 28754 ft | 487 kts | 71° |
| 2026-05-06 19:01 | 50.92314 | 15.86887 | 29085 ft | 489 kts | 71° |
| 2026-05-06 19:01 | 50.93579 | 15.91890 | 29408 ft | 490 kts | 71° |
| 2026-05-06 19:01 | 50.94848 | 15.96928 | 29680 ft | 493 kts | 71° |
| 2026-05-06 19:01 | 50.96118 | 16.01977 | 30028 ft | 492 kts | 71° |
| 2026-05-06 19:02 | 50.97380 | 16.07007 | 30412 ft | 490 kts | 71° |
| 2026-05-06 19:02 | 50.98639 | 16.12041 | 30674 ft | 491 kts | 71° |
| 2026-05-06 19:02 | 50.99898 | 16.17086 | 30882 ft | 493 kts | 71° |
| 2026-05-06 19:02 | 51.01160 | 16.22154 | 31141 ft | 494 kts | 71° |
| 2026-05-06 19:03 | 51.02422 | 16.27233 | 31425 ft | 494 kts | 71° |
| 2026-05-06 19:03 | 51.03681 | 16.32314 | 31595 ft | 497 kts | 71° |
| 2026-05-06 19:03 | 51.04950 | 16.37444 | 31740 ft | 500 kts | 71° |
| 2026-05-06 19:03 | 51.06219 | 16.42588 | 32028 ft | 499 kts | 71° |
| 2026-05-06 19:04 | 51.07482 | 16.47715 | 32383 ft | 498 kts | 71° |
| 2026-05-06 19:04 | 51.08741 | 16.52838 | 32687 ft | 497 kts | 71° |
| 2026-05-06 19:04 | 51.09997 | 16.57965 | 32926 ft | 498 kts | 71° |
| 2026-05-06 19:04 | 51.11254 | 16.63105 | 33154 ft | 500 kts | 71° |
| 2026-05-06 19:05 | 51.12512 | 16.68266 | 33393 ft | 500 kts | 71° |
| 2026-05-06 19:05 | 51.13770 | 16.73433 | 33695 ft | 499 kts | 71° |
| 2026-05-06 19:05 | 51.15019 | 16.78580 | 33963 ft | 498 kts | 71° |
| 2026-05-06 19:05 | 51.16267 | 16.83732 | 34214 ft | 497 kts | 71° |
| 2026-05-06 19:06 | 51.17511 | 16.88874 | 34425 ft | 498 kts | 71° |
| 2026-05-06 19:06 | 51.18752 | 16.94022 | 34605 ft | 498 kts | 71° |
| 2026-05-06 19:06 | 51.19991 | 16.99187 | 34797 ft | 499 kts | 71° |
| 2026-05-06 19:07 | 51.22469 | 17.09584 | 34798 ft | 502 kts | 71° |
| 2026-05-06 19:07 | 51.24934 | 17.19974 | 34781 ft | 497 kts | 71° |
| 2026-05-06 19:08 | 51.27365 | 17.30264 | 34779 ft | 494 kts | 71° |
| 2026-05-06 19:08 | 51.30592 | 17.39918 | 34789 ft | 494 kts | 53° |
| 2026-05-06 19:09 | 51.34725 | 17.48690 | 34762 ft | 494 kts | 52° |
| 2026-05-06 19:09 | 51.38868 | 17.57461 | 34779 ft | 494 kts | 53° |
| 2026-05-06 19:10 | 51.42970 | 17.66310 | 34798 ft | 495 kts | 53° |
| 2026-05-06 19:10 | 51.47054 | 17.75230 | 34790 ft | 497 kts | 53° |
| 2026-05-06 19:11 | 51.51144 | 17.84212 | 34787 ft | 499 kts | 53° |
| 2026-05-06 19:11 | 51.55237 | 17.93228 | 34785 ft | 501 kts | 54° |
| 2026-05-06 19:12 | 51.59341 | 18.02292 | 34784 ft | 502 kts | 54° |
| 2026-05-06 19:12 | 51.63412 | 18.11315 | 34794 ft | 502 kts | 54° |
| 2026-05-06 19:13 | 51.67506 | 18.20419 | 34769 ft | 502 kts | 54° |
| 2026-05-06 19:13 | 51.71583 | 18.29520 | 34783 ft | 500 kts | 54° |
| 2026-05-06 19:14 | 51.75647 | 18.38623 | 34785 ft | 499 kts | 54° |
| 2026-05-06 19:14 | 51.79695 | 18.47722 | 34794 ft | 498 kts | 54° |
| 2026-05-06 19:15 | 51.83723 | 18.56808 | 34788 ft | 497 kts | 54° |
| 2026-05-06 19:15 | 51.87738 | 18.65897 | 34785 ft | 496 kts | 54° |
| 2026-05-06 19:16 | 51.91740 | 18.74988 | 34781 ft | 495 kts | 54° |
| 2026-05-06 19:16 | 51.95731 | 18.84086 | 34785 ft | 495 kts | 54° |
| 2026-05-06 19:17 | 51.99709 | 18.93188 | 34763 ft | 495 kts | 54° |
| 2026-05-06 19:17 | 52.03679 | 19.02302 | 34783 ft | 494 kts | 54° |
| 2026-05-06 19:18 | 52.07640 | 19.11428 | 34786 ft | 494 kts | 54° |
| 2026-05-06 19:18 | 52.11597 | 19.20578 | 34783 ft | 495 kts | 54° |
| 2026-05-06 19:19 | 52.15551 | 19.29754 | 34792 ft | 495 kts | 54° |
| 2026-05-06 19:19 | 52.19505 | 19.38963 | 34787 ft | 496 kts | 54° |
| 2026-05-06 19:20 | 52.23424 | 19.48123 | 34780 ft | 496 kts | 54° |
| 2026-05-06 19:20 | 52.27366 | 19.57370 | 34782 ft | 496 kts | 54° |
| 2026-05-06 19:21 | 52.31305 | 19.66641 | 34777 ft | 497 kts | 54° |
| 2026-05-06 19:21 | 52.35238 | 19.75935 | 34787 ft | 497 kts | 55° |
| 2026-05-06 19:22 | 52.39163 | 19.85242 | 34780 ft | 497 kts | 55° |
| 2026-05-06 19:22 | 52.43078 | 19.94560 | 34780 ft | 496 kts | 55° |
| 2026-05-06 19:23 | 52.46982 | 20.03887 | 34783 ft | 496 kts | 55° |
| 2026-05-06 19:23 | 52.50881 | 20.13233 | 34775 ft | 496 kts | 55° |
| 2026-05-06 19:24 | 52.54770 | 20.22592 | 34779 ft | 496 kts | 55° |
| 2026-05-06 19:24 | 52.58652 | 20.31966 | 34778 ft | 496 kts | 56° |
| 2026-05-06 19:25 | 52.62522 | 20.41348 | 34781 ft | 495 kts | 56° |
| 2026-05-06 19:25 | 52.66351 | 20.50664 | 34769 ft | 494 kts | 55° |
| 2026-05-06 19:26 | 52.70193 | 20.60046 | 34791 ft | 494 kts | 56° |
| 2026-05-06 19:26 | 52.74026 | 20.69440 | 34778 ft | 493 kts | 56° |
| 2026-05-06 19:27 | 52.77875 | 20.78909 | 34774 ft | 493 kts | 56° |
| 2026-05-06 19:27 | 52.81663 | 20.88262 | 34779 ft | 493 kts | 56° |
| 2026-05-06 19:28 | 52.85491 | 20.97750 | 34775 ft | 493 kts | 56° |
| 2026-05-06 19:28 | 52.89289 | 21.07198 | 34785 ft | 493 kts | 56° |
| 2026-05-06 19:29 | 52.93083 | 21.16672 | 34779 ft | 494 kts | 56° |
| 2026-05-06 19:29 | 52.96876 | 21.26179 | 34751 ft | 494 kts | 57° |
| 2026-05-06 19:30 | 53.00660 | 21.35698 | 34768 ft | 494 kts | 57° |
| 2026-05-06 19:30 | 53.04435 | 21.45232 | 34770 ft | 494 kts | 57° |
| 2026-05-06 19:31 | 53.08206 | 21.54792 | 34773 ft | 494 kts | 57° |
| 2026-05-06 19:31 | 53.13831 | 21.69097 | 34768 ft | 495 kts | 56° |
| 2026-05-06 19:32 | 53.18457 | 21.77597 | 34764 ft | 492 kts | 36° |
| 2026-05-06 19:32 | 53.23949 | 21.84370 | 34768 ft | 491 kts | 34° |
| 2026-05-06 19:33 | 53.29486 | 21.91088 | 34773 ft | 492 kts | 34° |
| 2026-05-06 19:33 | 53.34955 | 21.97848 | 34771 ft | 493 kts | 35° |
| 2026-05-06 19:34 | 53.40444 | 22.04721 | 34772 ft | 493 kts | 35° |
| 2026-05-06 19:34 | 53.45927 | 22.11623 | 34776 ft | 493 kts | 35° |
| 2026-05-06 19:35 | 53.51411 | 22.18547 | 34780 ft | 493 kts | 35° |
| 2026-05-06 19:35 | 53.56899 | 22.25492 | 34774 ft | 493 kts | 35° |
| 2026-05-06 19:36 | 53.62373 | 22.32444 | 34774 ft | 493 kts | 35° |
| 2026-05-06 19:36 | 53.67840 | 22.39409 | 34763 ft | 492 kts | 35° |
| 2026-05-06 19:37 | 53.73294 | 22.46382 | 34777 ft | 492 kts | 36° |
| 2026-05-06 19:37 | 53.77860 | 22.52237 | 34785 ft | 491 kts | 36° |
| 2026-05-06 19:38 | 53.83297 | 22.59230 | 34786 ft | 491 kts | 36° |
| 2026-05-06 19:38 | 53.88689 | 22.66189 | 34794 ft | 490 kts | 36° |
| 2026-05-06 19:39 | 53.94113 | 22.73213 | 34798 ft | 490 kts | 36° |
| 2026-05-06 19:39 | 53.99534 | 22.80257 | 34801 ft | 490 kts | 36° |
| 2026-05-06 19:40 | 54.04948 | 22.87304 | 34800 ft | 490 kts | 34° |
| 2026-05-06 19:40 | 54.10865 | 22.92848 | 34821 ft | 484 kts | 18° |
| 2026-05-06 19:41 | 54.17172 | 22.96867 | 34815 ft | 484 kts | 17° |
| 2026-05-06 19:41 | 54.23479 | 23.00974 | 34814 ft | 486 kts | 18° |
| 2026-05-06 19:42 | 54.29782 | 23.05194 | 34809 ft | 486 kts | 17° |
| 2026-05-06 19:42 | 54.36288 | 23.07994 | 34833 ft | 481 kts | 6° |
| 2026-05-06 19:43 | 54.42885 | 23.09964 | 34826 ft | 481 kts | 5° |
| 2026-05-06 19:43 | 54.49491 | 23.11952 | 34817 ft | 482 kts | 6° |
| 2026-05-06 19:44 | 54.56103 | 23.14046 | 34822 ft | 484 kts | 6° |
| 2026-05-06 19:44 | 54.62726 | 23.16199 | 34835 ft | 485 kts | 6° |
| 2026-05-06 19:45 | 54.66057 | 23.17286 | 34355 ft | 492 kts | 6° |
| 2026-05-06 19:45 | 54.69423 | 23.18386 | 33761 ft | 491 kts | 6° |
| 2026-05-06 19:45 | 54.72779 | 23.19487 | 33051 ft | 491 kts | 6° |
| 2026-05-06 19:45 | 54.76132 | 23.20588 | 32485 ft | 488 kts | 6° |
| 2026-05-06 19:46 | 54.79448 | 23.21682 | 32041 ft | 483 kts | 6° |
| 2026-05-06 19:46 | 54.82733 | 23.22766 | 31573 ft | 478 kts | 6° |
| 2026-05-06 19:46 | 54.85986 | 23.23839 | 31122 ft | 474 kts | 6° |
| 2026-05-06 19:46 | 54.89217 | 23.24906 | 30689 ft | 470 kts | 5° |
| 2026-05-06 19:47 | 54.92420 | 23.25963 | 30249 ft | 467 kts | 5° |
| 2026-05-06 19:47 | 54.95597 | 23.27013 | 29793 ft | 463 kts | 5° |
| 2026-05-06 19:47 | 54.98754 | 23.28059 | 29284 ft | 460 kts | 5° |
| 2026-05-06 19:47 | 55.01877 | 23.29095 | 28833 ft | 455 kts | 5° |
| 2026-05-06 19:48 | 55.04966 | 23.30122 | 28388 ft | 450 kts | 5° |
| 2026-05-06 19:48 | 55.08033 | 23.31143 | 27949 ft | 446 kts | 5° |
| 2026-05-06 19:48 | 55.11066 | 23.32154 | 27500 ft | 442 kts | 5° |
| 2026-05-06 19:48 | 55.14093 | 23.33163 | 27091 ft | 443 kts | 5° |
| 2026-05-06 19:49 | 55.17131 | 23.34174 | 26630 ft | 446 kts | 5° |
| 2026-05-06 19:49 | 55.20166 | 23.35188 | 26182 ft | 442 kts | 6° |
| 2026-05-06 19:49 | 55.23177 | 23.36199 | 25746 ft | 439 kts | 6° |
| 2026-05-06 19:49 | 55.26167 | 23.37205 | 25312 ft | 436 kts | 6° |
| 2026-05-06 19:50 | 55.29131 | 23.38205 | 24885 ft | 432 kts | 6° |
| 2026-05-06 19:50 | 55.32077 | 23.39198 | 24460 ft | 429 kts | 6° |
| 2026-05-06 19:50 | 55.35001 | 23.40185 | 24051 ft | 427 kts | 6° |
| 2026-05-06 19:50 | 55.37907 | 23.41167 | 23630 ft | 424 kts | 6° |
| 2026-05-06 19:51 | 55.40801 | 23.42146 | 23166 ft | 422 kts | 6° |
| 2026-05-06 19:51 | 55.43638 | 23.43107 | 22695 ft | 420 kts | 6° |
| 2026-05-06 19:51 | 55.46497 | 23.44078 | 22263 ft | 416 kts | 6° |
| 2026-05-06 19:51 | 55.49327 | 23.45042 | 21849 ft | 413 kts | 6° |
| 2026-05-06 19:52 | 55.52135 | 23.45998 | 21427 ft | 409 kts | 6° |
| 2026-05-06 19:52 | 55.54916 | 23.46947 | 21041 ft | 406 kts | 6° |
| 2026-05-06 19:52 | 55.57684 | 23.47892 | 20610 ft | 404 kts | 6° |
| 2026-05-06 19:52 | 55.60433 | 23.48831 | 20206 ft | 401 kts | 6° |
| 2026-05-06 19:53 | 55.63161 | 23.49765 | 19800 ft | 398 kts | 6° |
| 2026-05-06 19:53 | 55.65871 | 23.50695 | 19429 ft | 395 kts | 6° |
| 2026-05-06 19:53 | 55.68563 | 23.51619 | 19025 ft | 393 kts | 6° |
| 2026-05-06 19:53 | 55.71242 | 23.52540 | 18624 ft | 391 kts | 6° |
| 2026-05-06 19:54 | 55.73903 | 23.53456 | 18232 ft | 389 kts | 6° |
| 2026-05-06 19:54 | 55.76552 | 23.54369 | 17789 ft | 386 kts | 6° |
| 2026-05-06 19:54 | 55.79184 | 23.55278 | 17362 ft | 384 kts | 6° |
| 2026-05-06 19:54 | 55.81795 | 23.56181 | 16951 ft | 381 kts | 6° |
| 2026-05-06 19:55 | 55.84389 | 23.57079 | 16553 ft | 378 kts | 6° |
| 2026-05-06 19:55 | 55.86962 | 23.57972 | 16165 ft | 375 kts | 7° |
| 2026-05-06 19:55 | 55.89516 | 23.58858 | 15780 ft | 373 kts | 7° |
| 2026-05-06 19:55 | 55.92046 | 23.59802 | 15269 ft | 370 kts | 8° |
| 2026-05-06 19:56 | 55.94556 | 23.60838 | 14519 ft | 371 kts | 9° |
| 2026-05-06 19:56 | 55.97068 | 23.61907 | 13841 ft | 371 kts | 10° |
| 2026-05-06 19:56 | 55.99563 | 23.62976 | 13195 ft | 367 kts | 10° |
| 2026-05-06 19:56 | 56.02034 | 23.64030 | 12575 ft | 362 kts | 10° |
| 2026-05-06 19:57 | 56.04468 | 23.65062 | 12040 ft | 356 kts | 10° |
| 2026-05-06 19:57 | 56.06868 | 23.66074 | 11633 ft | 353 kts | 10° |
| 2026-05-06 19:57 | 56.09255 | 23.67076 | 11252 ft | 352 kts | 10° |
| 2026-05-06 19:57 | 56.11640 | 23.68076 | 10869 ft | 352 kts | 10° |
| 2026-05-06 19:58 | 56.14016 | 23.69073 | 10554 ft | 349 kts | 10° |
| 2026-05-06 19:58 | 56.16345 | 23.70053 | 10406 ft | 340 kts | 10° |
| 2026-05-06 19:58 | 56.18626 | 23.71013 | 10268 ft | 333 kts | 10° |
| 2026-05-06 19:58 | 56.20858 | 23.71954 | 10111 ft | 326 kts | 9° |
| 2026-05-06 19:59 | 56.23043 | 23.72876 | 9955 ft | 319 kts | 9° |
| 2026-05-06 19:59 | 56.25170 | 23.73774 | 9897 ft | 309 kts | 9° |
| 2026-05-06 19:59 | 56.27288 | 23.74666 | 9395 ft | 312 kts | 9° |
| 2026-05-06 19:59 | 56.29386 | 23.75551 | 9046 ft | 308 kts | 9° |
| 2026-05-06 20:00 | 56.31449 | 23.76423 | 8747 ft | 302 kts | 10° |
| 2026-05-06 20:00 | 56.33473 | 23.77281 | 8447 ft | 296 kts | 10° |
| 2026-05-06 20:00 | 56.35459 | 23.78123 | 8151 ft | 291 kts | 10° |
| 2026-05-06 20:00 | 56.37411 | 23.78951 | 7862 ft | 287 kts | 10° |
| 2026-05-06 20:01 | 56.39350 | 23.79774 | 7598 ft | 286 kts | 11° |
| 2026-05-06 20:01 | 56.41290 | 23.80597 | 7320 ft | 286 kts | 11° |
| 2026-05-06 20:01 | 56.43229 | 23.81422 | 7039 ft | 287 kts | 11° |
| 2026-05-06 20:01 | 56.45145 | 23.82238 | 6760 ft | 287 kts | 11° |
| 2026-05-06 20:02 | 56.47092 | 23.83068 | 6475 ft | 287 kts | 11° |
| 2026-05-06 20:02 | 56.49039 | 23.83899 | 6156 ft | 288 kts | 12° |
| 2026-05-06 20:02 | 56.50985 | 23.84730 | 5841 ft | 285 kts | 13° |
| 2026-05-06 20:02 | 56.52894 | 23.85547 | 5541 ft | 279 kts | 13° |
| 2026-05-06 20:03 | 56.54763 | 23.86347 | 5252 ft | 273 kts | 14° |
| 2026-05-06 20:03 | 56.56596 | 23.87132 | 4983 ft | 268 kts | 15° |
| 2026-05-06 20:03 | 56.58390 | 23.87902 | 4718 ft | 262 kts | 16° |
| 2026-05-06 20:03 | 56.60141 | 23.88655 | 4461 ft | 256 kts | 17° |
| 2026-05-06 20:04 | 56.61856 | 23.89392 | 4217 ft | 251 kts | 17° |
| 2026-05-06 20:04 | 56.63548 | 23.90122 | 4048 ft | 248 kts | 18° |
| 2026-05-06 20:04 | 56.65214 | 23.90840 | 3953 ft | 244 kts | 18° |
| 2026-05-06 20:04 | 56.66826 | 23.91534 | 3842 ft | 233 kts | 19° |
| 2026-05-06 20:05 | 56.68383 | 23.92205 | 3759 ft | 229 kts | 19° |
| 2026-05-06 20:05 | 56.69935 | 23.92879 | 3720 ft | 230 kts | 19° |
| 2026-05-06 20:05 | 56.71501 | 23.93516 | 3444 ft | 231 kts | 16° |
| 2026-05-06 20:05 | 56.73068 | 23.93916 | 3246 ft | 223 kts | 12° |
| 2026-05-06 20:06 | 56.74587 | 23.94183 | 3014 ft | 215 kts | 11° |
| 2026-05-06 20:06 | 56.76045 | 23.94419 | 2770 ft | 205 kts | 11° |
| 2026-05-06 20:06 | 56.77421 | 23.94642 | 2564 ft | 191 kts | 11° |
| 2026-05-06 20:06 | 56.78687 | 23.94850 | 2463 ft | 176 kts | 12° |
| 2026-05-06 20:07 | 56.79853 | 23.95043 | 2257 ft | 162 kts | 13° |
| 2026-05-06 20:07 | 56.80950 | 23.95227 | 2056 ft | 157 kts | 13° |
| 2026-05-06 20:07 | 56.82030 | 23.95408 | 1830 ft | 154 kts | 13° |
| 2026-05-06 20:07 | 56.83068 | 23.95579 | 1645 ft | 147 kts | 13° |
| 2026-05-06 20:08 | 56.84076 | 23.95747 | 1431 ft | 144 kts | 13° |
| 2026-05-06 20:08 | 56.85072 | 23.95915 | 1205 ft | 143 kts | 12° |
| 2026-05-06 20:08 | 56.86056 | 23.96078 | 1025 ft | 141 kts | 11° |
| 2026-05-06 20:08 | 56.87055 | 23.96242 | 818 ft | 147 kts | 9° |
| 2026-05-06 20:09 | 56.88074 | 23.96407 | 598 ft | 147 kts | 8° |
| 2026-05-06 20:09 | 56.89101 | 23.96582 | 386 ft | 149 kts | 7° |
| 2026-05-06 20:09 | 56.90125 | 23.96743 | 194 ft | 148 kts | 8° |
| 2026-05-06 20:09 | 56.91146 | 23.96911 | 45 ft | 141 kts | 5° |
| 2026-05-06 20:10 | 56.91996 | 23.97054 | 42 ft | 101 kts | 5° |
| 2026-05-06 20:10 | 56.92546 | 23.97143 | 44 ft | 58 kts | 6° |
| 2026-05-06 20:10 | 56.92795 | 23.97185 | 44 ft | 17 kts | 5° |
| 2026-05-06 20:10 | 56.92911 | 23.97207 | 44 ft | 17 kts | 12° |
| 2026-05-06 20:11 | 56.92960 | 23.97365 | 44 ft | 16 kts | 94° |
| 2026-05-06 20:11 | 56.92947 | 23.97554 | 43 ft | 7 kts | 111° |
| 2026-05-06 20:11 | 56.92903 | 23.97595 | 43 ft | 7 kts | 175° |
| 2026-05-06 20:11 | 56.92844 | 23.97587 | 42 ft | 13 kts | 185° |
| 2026-05-06 20:12 | 56.92719 | 23.97567 | 43 ft | 22 kts | 185° |
| 2026-05-06 20:12 | 56.92569 | 23.97544 | 43 ft | 21 kts | 185° |
| 2026-05-06 20:12 | 56.92424 | 23.97517 | 43 ft | 21 kts | 188° |
| 2026-05-06 20:12 | 56.92376 | 23.97515 | 43 ft | 5 kts | 162° |
| 2026-05-06 20:13 | 56.92356 | 23.97564 | 43 ft | 5 kts | 105° |
| 2026-05-06 20:13 | 56.92351 | 23.97636 | 42 ft | 6 kts | 96° |
| 2026-05-06 20:13 | 56.92324 | 23.97682 | 43 ft | 6 kts | 180° |
| 2026-05-06 20:13 | 56.92303 | 23.97678 | 43 ft | 2 kts | 185° |
| 2026-05-06 20:14 | 56.92294 | 23.97676 | 43 ft | 0 kts | 185° |